Time;durP1;ratioP1;P1;durP2;ratioP2;P2;SDS_P1;SDS_P2;PMS_P1;PMS_P2;Temp;Humidity;BMP_temperature;BMP_pressure;BME280_temperature;BME280_humidity;BME280_pressure;Samples;Min_cycle;Max_cycle;Signal;HPM_P1;HPM_P2
2023/06/18 00:01:45;;;;;;;0.20;0.20;;;11.90;99.90;;;;;;4994841;28;20046;-77
2023/06/18 00:04:53;;;;;;;3.35;3.20;;;12.00;99.90;;;;;;5061592;28;20044;-78
2023/06/18 00:07:33;;;;;;;0.10;0.10;;;9.80;99.90;;;;;;4974448;28;20026;-79
2023/06/18 00:10:02;;;;;;;0.10;0.10;;;12.00;99.90;;;;;;4975621;28;20167;-78
2023/06/18 00:12:29;;;;;;;0.10;0.10;;;12.10;99.90;;;;;;4973871;28;20039;-78
2023/06/18 00:15:10;;;;;;;0.10;0.10;;;11.80;99.90;;;;;;4979331;28;20054;-79
2023/06/18 00:17:39;;;;;;;0.20;0.20;;;11.90;99.90;;;;;;4962190;28;20041;-78
2023/06/18 00:20:33;;;;;;;0.10;0.10;;;11.80;99.90;;;;;;4973978;28;20046;-77
2023/06/18 00:23:08;;;;;;;0.20;0.20;;;11.90;99.90;;;;;;4975055;28;20045;-78
2023/06/18 00:25:57;;;;;;;0.20;0.20;;;10.50;99.90;;;;;;4972676;28;20027;-78
2023/06/18 00:28:23;;;;;;;0.30;0.30;;;12.00;99.90;;;;;;4959693;28;20202;-79
2023/06/18 00:30:51;;;;;;;1.27;1.23;;;11.90;99.90;;;;;;4976474;28;20031;-76
2023/06/18 00:33:20;;;;;;;0.10;0.10;;;12.20;99.90;;;;;;4950621;28;20029;-77
2023/06/18 00:35:57;;;;;;;0.20;0.20;;;11.90;99.90;;;;;;4967173;28;20054;-78
2023/06/18 00:38:32;;;;;;;0.20;0.20;;;11.80;99.90;;;;;;4974370;28;20138;-78
2023/06/18 00:41:27;;;;;;;0.20;0.20;;;12.20;99.90;;;;;;4978914;28;20026;-77
2023/06/18 00:43:57;;;;;;;0.20;0.20;;;11.80;99.90;;;;;;4973944;28;20421;-78
2023/06/18 00:46:25;;;;;;;0.13;0.13;;;11.80;99.90;;;;;;4976672;28;20122;-77
2023/06/18 00:49:11;;;;;;;0.20;0.20;;;11.80;99.90;;;;;;4974482;28;20015;-75
2023/06/18 00:51:39;;;;;;;0.20;0.20;;;11.70;99.90;;;;;;4956346;28;20354;-79
2023/06/18 00:54:07;;;;;;;0.20;0.20;;;11.70;99.90;;;;;;4974446;28;20063;-79
2023/06/18 00:56:38;;;;;;;0.20;0.20;;;12.10;99.90;;;;;;4973027;28;20023;-79
2023/06/18 00:59:04;;;;;;;0.20;0.20;;;11.70;99.90;;;;;;4970137;28;20103;-79
2023/06/18 01:01:36;;;;;;;0.20;0.20;;;11.60;99.90;;;;;;4969896;28;20035;-79
2023/06/18 01:04:04;;;;;;;0.10;0.10;;;;;;;;;;4973128;28;20027;-78
2023/06/18 01:07:03;;;;;;;0.20;0.20;;;14.50;99.90;;;;;;4970276;28;20038;-78
2023/06/18 01:09:42;;;;;;;0.20;0.20;;;11.60;99.90;;;;;;4990701;28;20066;-79
2023/06/18 01:12:12;;;;;;;0.10;0.10;;;9.80;99.90;;;;;;4958052;28;20524;-78
2023/06/18 01:14:39;;;;;;;0.10;0.10;;;11.60;99.90;;;;;;4972032;28;20038;-79
2023/06/18 01:17:11;;;;;;;0.45;0.45;;;11.60;99.90;;;;;;5005095;28;20214;-80
2023/06/18 01:19:57;;;;;;;0.75;0.75;;;11.80;99.90;;;;;;5064297;28;20599;-80
2023/06/18 01:22:57;;;;;;;0.10;0.10;;;13.40;99.90;;;;;;5060300;28;20044;-79
2023/06/18 01:25:59;;;;;;;0.20;0.20;;;11.60;99.90;;;;;;5038921;28;20338;-78
2023/06/18 01:28:29;;;;;;;0.20;0.20;;;11.50;99.90;;;;;;4959797;28;20039;-78
2023/06/18 01:31:25;;;;;;;0.10;0.10;;;11.50;99.90;;;;;;4954581;28;20386;-79
2023/06/18 01:34:06;;;;;;;0.10;0.10;;;11.40;99.90;;;;;;4979101;28;20054;-77
2023/06/18 01:37:27;;;;;;;0.10;0.10;;;11.30;99.90;;;;;;4961272;28;20035;-78
2023/06/18 01:40:18;;;;;;;0.20;0.20;;;11.30;99.90;;;;;;4961445;28;20043;-78
2023/06/18 01:46:43;;;;;;;0.10;0.10;;;11.10;99.90;;;;;;4877458;29;20073;-77
2023/06/18 01:49:33;;;;;;;0.20;0.20;;;11.10;99.90;;;;;;4875656;29;20093;-77
2023/06/18 01:52:41;;;;;;;0.20;0.20;;;11.10;99.90;;;;;;4880662;29;20112;-78
2023/06/18 01:55:38;;;;;;;0.10;0.10;;;11.00;99.90;;;;;;4860495;29;20039;-77
2023/06/18 01:58:59;;;;;;;0.10;0.10;;;11.00;99.90;;;;;;4846929;29;20049;-77
2023/06/18 02:01:27;;;;;;;0.30;0.30;;;11.10;99.90;;;;;;4835730;29;20152;-78
2023/06/18 02:03:55;;;;;;;39.88;26.88;;;11.00;99.90;;;;;;4831892;29;20030;-77
2023/06/18 02:09:00;;;;;;;0.10;0.10;;;11.00;99.90;;;;;;3312995;26;20047;-76
2023/06/18 02:11:30;;;;;;;0.20;0.20;;;11.30;99.90;;;;;;5094861;28;20086;-76
2023/06/18 02:14:19;;;;;;;0.10;0.10;;;11.00;99.90;;;;;;5092911;28;20052;-77
2023/06/18 02:16:49;;;;;;;0.10;0.10;;;11.00;99.90;;;;;;5075344;28;20032;-77
2023/06/18 02:19:16;;;;;;;0.20;0.20;;;;;;;;;;5073148;28;20371;-78
2023/06/18 02:21:42;;;;;;;0.20;0.20;;;12.60;99.90;;;;;;5071664;28;20016;-79
2023/06/18 02:24:10;;;;;;;0.20;0.20;;;11.00;99.90;;;;;;5051831;28;20660;-77
2023/06/18 02:26:37;;;;;;;0.10;0.10;;;11.00;99.90;;;;;;5069901;28;20012;-78
2023/06/18 02:29:03;;;;;;;0.20;0.20;;;10.90;99.90;;;;;;5071037;28;20016;-78
2023/06/18 02:31:31;;;;;;;0.20;0.20;;;11.00;99.90;;;;;;5053737;28;20194;-79
2023/06/18 02:33:58;;;;;;;0.10;0.10;;;11.60;99.90;;;;;;5069688;28;20013;-77
2023/06/18 02:36:26;;;;;;;1.70;1.65;;;11.20;99.90;;;;;;5071271;28;20519;-76
2023/06/18 02:38:53;;;;;;;0.20;0.20;;;;;;;;;;5037023;28;20288;-78
2023/06/18 02:41:35;;;;;;;0.10;0.10;;;11.00;99.90;;;;;;5072177;28;20004;-77
2023/06/18 02:44:04;;;;;;;0.73;0.73;;;10.80;99.90;;;;;;5072174;28;20038;-76
2023/06/18 02:46:35;;;;;;;0.17;0.17;;;11.00;99.90;;;;;;5072652;28;20028;-78
2023/06/18 02:49:05;;;;;;;0.10;0.10;;;10.90;99.90;;;;;;5085727;28;20027;-75
2023/06/18 02:51:33;;;;;;;0.20;0.20;;;11.00;99.90;;;;;;5056839;28;20021;-77
2023/06/18 02:54:00;;;;;;;0.10;0.10;;;10.90;99.90;;;;;;5073725;28;20153;-76
2023/06/18 02:56:28;;;;;;;0.20;0.20;;;11.40;99.90;;;;;;5055918;28;20020;-78
2023/06/18 02:58:58;;;;;;;0.17;0.17;;;10.90;99.90;;;;;;5055999;28;20088;-77
2023/06/18 03:01:25;;;;;;;0.10;0.10;;;;;;;;;;5073852;28;20814;-77
2023/06/18 03:03:54;;;;;;;0.10;0.10;;;;;;;;;;5052210;28;20020;-76
2023/06/18 03:06:42;;;;;;;0.40;0.40;;;10.90;99.90;;;;;;5067713;28;20024;-76
2023/06/18 03:09:31;;;;;;;0.20;0.20;;;10.80;99.90;;;;;;5094501;28;20344;-76
2023/06/18 03:12:04;;;;;;;0.10;0.10;;;10.70;99.90;;;;;;5073684;28;20028;-77
2023/06/18 03:14:34;;;;;;;0.10;0.10;;;10.70;99.90;;;;;;5084700;28;20035;-76
2023/06/18 03:17:25;;;;;;;0.13;0.13;;;9.70;99.90;;;;;;5089771;28;20533;-76
2023/06/18 03:19:51;;;;;;;0.10;0.10;;;10.50;99.90;;;;;;5075953;28;20036;-77
2023/06/18 03:22:18;;;;;;;0.10;0.10;;;10.50;99.90;;;;;;5054027;28;20020;-77
2023/06/18 03:24:45;;;;;;;0.10;0.10;;;;;;;;;;5054503;28;20021;-77
2023/06/18 03:27:15;;;;;;;0.10;0.10;;;;;;;;;;5072253;28;20355;-77
2023/06/18 03:30:03;;;;;;;0.10;0.10;;;10.50;99.90;;;;;;5081290;28;20024;-77
2023/06/18 03:32:34;;;;;;;0.10;0.10;;;10.60;99.90;;;;;;5072191;28;20115;-77
2023/06/18 03:35:00;;;;;;;0.10;0.10;;;10.60;99.90;;;;;;5073061;28;20021;-77
2023/06/18 03:37:27;;;;;;;0.13;0.13;;;10.60;99.90;;;;;;5072998;28;20024;-77
2023/06/18 03:39:54;;;;;;;0.10;0.10;;;;;;;;;;5071522;28;20028;-78
2023/06/18 03:42:24;;;;;;;0.10;0.10;;;10.70;99.90;;;;;;5052069;28;20036;-77
2023/06/18 03:44:53;;;;;;;0.20;0.20;;;10.70;99.90;;;;;;5054194;28;20040;-77
2023/06/18 03:47:39;;;;;;;0.20;0.20;;;9.70;99.90;;;;;;5075378;28;20047;-78
2023/06/18 03:50:18;;;;;;;0.10;0.10;;;11.20;99.90;;;;;;5053393;28;20029;-78
2023/06/18 03:52:47;;;;;;;0.20;0.20;;;10.60;99.90;;;;;;5071404;28;20713;-77
2023/06/18 03:55:15;;;;;;;0.20;0.20;;;9.80;99.90;;;;;;5073762;28;20013;-78
2023/06/18 03:57:53;;;;;;;0.10;0.10;;;10.70;99.90;;;;;;5076286;28;20019;-77
2023/06/18 04:00:24;;;;;;;0.17;0.17;;;10.50;99.90;;;;;;5074288;28;20131;-78
2023/06/18 04:02:52;;;;;;;0.10;0.10;;;10.60;99.90;;;;;;5057322;28;20024;-77
2023/06/18 04:05:35;;;;;;;0.15;0.15;;;10.80;99.90;;;;;;5093042;28;20009;-81
2023/06/18 04:08:44;;;;;;;0.10;0.10;;;11.00;99.90;;;;;;5011877;28;20053;-77
2023/06/18 04:11:11;;;;;;;0.57;0.57;;;;;;;;;;4997374;28;20037;-78
2023/06/18 04:13:40;;;;;;;0.10;0.10;;;10.80;99.90;;;;;;5010929;28;20133;-78
2023/06/18 04:16:06;;;;;;;0.45;0.45;;;11.10;99.90;;;;;;4995331;28;20029;-78
2023/06/18 04:18:32;;;;;;;0.10;0.10;;;11.10;99.90;;;;;;5024615;28;20097;-77
2023/06/18 04:21:25;;;;;;;0.10;0.10;;;11.00;99.90;;;;;;5035475;28;20080;-76
2023/06/18 04:23:54;;;;;;;0.20;0.20;;;11.40;99.90;;;;;;4970874;28;20066;-77
2023/06/18 04:26:21;;;;;;;0.10;0.10;;;;;;;;;;4974568;28;20039;-78
2023/06/18 04:28:51;;;;;;;0.10;0.10;;;11.00;99.90;;;;;;4974527;28;20037;-77
2023/06/18 04:31:28;;;;;;;0.20;0.20;;;11.00;99.90;;;;;;4971584;28;20066;-77
2023/06/18 04:33:55;;;;;;;0.20;0.20;;;11.00;99.90;;;;;;4970726;28;20042;-77
2023/06/18 04:36:21;;;;;;;0.20;0.20;;;10.90;99.90;;;;;;4970764;28;20031;-77
2023/06/18 04:38:47;;;;;;;0.10;0.10;;;11.00;99.90;;;;;;4981062;28;20038;-77
2023/06/18 04:41:30;;;;;;;0.20;0.20;;;11.40;99.90;;;;;;4991124;28;20049;-77
2023/06/18 04:44:03;;;;;;;0.20;0.20;;;11.20;99.90;;;;;;5009465;28;20444;-77
2023/06/18 04:46:33;;;;;;;0.30;0.30;;;11.30;99.90;;;;;;4993337;28;20030;-77
2023/06/18 04:48:59;;;;;;;0.30;0.30;;;11.40;99.90;;;;;;5017536;28;20097;-78
2023/06/18 04:51:31;;;;;;;1.10;1.10;;;11.50;99.90;;;;;;5002338;28;20117;-78
2023/06/18 04:54:03;;;;;;;0.17;0.17;;;11.60;99.90;;;;;;5019372;28;20054;-76
2023/06/18 04:57:00;;;;;;;0.10;0.10;;;11.80;99.90;;;;;;5026597;28;20046;-77
2023/06/18 05:02:14;;;;;;;0.20;0.20;;;11.80;99.90;;;;;;5078104;28;20048;-76
2023/06/18 05:04:44;;;;;;;0.20;0.20;;;12.00;99.90;;;;;;5073742;28;20108;-78
2023/06/18 05:07:15;;;;;;;0.30;0.30;;;12.10;99.90;;;;;;5075987;28;20017;-77
2023/06/18 05:09:42;;;;;;;0.70;0.70;;;12.20;99.90;;;;;;5072984;28;20510;-78
2023/06/18 05:12:09;;;;;;;0.20;0.20;;;12.30;99.90;;;;;;5051963;28;20021;-77
2023/06/18 05:14:36;;;;;;;0.20;0.20;;;12.40;99.90;;;;;;5051545;28;20232;-78
2023/06/18 05:17:03;;;;;;;0.20;0.20;;;12.40;99.90;;;;;;5067672;28;20401;-77
2023/06/18 05:19:29;;;;;;;0.20;0.20;;;11.30;99.90;;;;;;5048108;28;20043;-78
2023/06/18 05:21:57;;;;;;;0.20;0.20;;;13.00;99.90;;;;;;5048074;28;20529;-78
2023/06/18 05:24:24;;;;;;;0.20;0.20;;;12.60;99.90;;;;;;5067099;28;20718;-81
2023/06/18 05:26:52;;;;;;;0.30;0.30;;;12.60;99.90;;;;;;5065641;28;20501;-82
2023/06/18 05:29:18;;;;;;;6.75;6.13;;;12.70;99.90;;;;;;5047380;28;20116;-88
2023/06/18 05:31:44;;;;;;;0.20;0.20;;;12.60;99.90;;;;;;5048593;28;20323;-85
2023/06/18 05:34:10;;;;;;;0.20;0.20;;;12.60;99.90;;;;;;5030288;28;20028;-84
2023/06/18 05:36:36;;;;;;;0.47;0.47;;;13.00;99.90;;;;;;5063872;28;20325;-85
2023/06/18 05:39:02;;;;;;;0.57;0.57;;;13.00;99.90;;;;;;5062427;28;20260;-87
2023/06/18 05:41:28;;;;;;;0.20;0.20;;;13.10;99.90;;;;;;5046608;28;20230;-87
2023/06/18 05:43:54;;;;;;;2.65;2.50;;;13.10;99.90;;;;;;5063941;28;20518;-79
2023/06/18 05:46:20;;;;;;;0.20;0.20;;;13.30;99.90;;;;;;5061891;28;20059;-87
2023/06/18 05:48:49;;;;;;;1.65;1.65;;;13.50;99.90;;;;;;5044635;28;20456;-90
2023/06/18 05:51:15;;;;;;;0.20;0.20;;;13.50;99.90;;;;;;5044678;28;20021;-85
2023/06/18 05:53:43;;;;;;;0.20;0.20;;;13.60;99.90;;;;;;5064566;28;20024;-84
2023/06/18 05:56:15;;;;;;;0.20;0.20;;;13.70;99.90;;;;;;5046759;28;20067;-90
2023/06/18 05:58:45;;;;;;;0.20;0.20;;;13.80;99.90;;;;;;5051080;28;20064;-84
2023/06/18 06:01:10;;;;;;;0.20;0.20;;;13.90;99.90;;;;;;5067422;28;20056;-82
2023/06/18 06:03:39;;;;;;;0.20;0.20;;;14.10;99.90;;;;;;5085608;28;20028;-84
2023/06/18 06:06:06;;;;;;;0.20;0.20;;;12.00;99.90;;;;;;5085372;28;20494;-87
2023/06/18 06:08:32;;;;;;;0.20;0.20;;;12.30;99.90;;;;;;5085442;28;20024;-82
2023/06/18 06:10:58;;;;;;;0.15;0.15;;;14.50;99.90;;;;;;5084370;28;20103;-80
2023/06/18 06:13:25;;;;;;;0.10;0.10;;;14.50;99.90;;;;;;5085763;28;20677;-78
2023/06/18 06:15:51;;;;;;;0.30;0.30;;;14.60;99.90;;;;;;5084733;28;20031;-81
2023/06/18 06:18:17;;;;;;;0.70;0.70;;;14.70;99.90;;;;;;5084680;28;20039;-81
2023/06/18 06:20:43;;;;;;;2.25;2.10;;;14.80;99.90;;;;;;5082482;28;20460;-82
2023/06/18 06:23:09;;;;;;;0.73;0.73;;;14.90;99.90;;;;;;5082817;28;20478;-87
2023/06/18 06:25:37;;;;;;;3.85;2.55;;;14.00;99.90;;;;;;5082593;28;20028;-87
2023/06/18 06:28:03;;;;;;;0.25;0.25;;;15.10;99.90;;;;;;5063724;28;20113;-90
2023/06/18 06:30:31;;;;;;;0.10;0.10;;;15.20;99.90;;;;;;5083419;28;20517;-91
2023/06/18 06:32:57;;;;;;;0.40;0.40;;;15.30;99.90;;;;;;5082932;28;20020;-82
2023/06/18 06:35:23;;;;;;;0.10;0.10;;;15.40;99.90;;;;;;5068960;28;20026;-91
2023/06/18 06:37:50;;;;;;;0.20;0.20;;;15.50;99.90;;;;;;5071484;28;20095;-91
2023/06/18 06:40:18;;;;;;;0.17;0.17;;;15.60;99.90;;;;;;5092376;28;20073;-88
2023/06/18 06:42:44;;;;;;;1.50;1.42;;;15.80;99.90;;;;;;5092450;28;20076;-79
2023/06/18 06:45:13;;;;;;;3.65;3.28;;;15.90;99.90;;;;;;5088996;28;20054;-86
2023/06/18 06:47:40;;;;;;;0.32;0.32;;;17.60;99.90;;;;;;5086192;28;20278;-86
2023/06/18 06:50:06;;;;;;;0.50;0.50;;;16.30;99.90;;;;;;5085375;28;20084;-79
2023/06/18 06:52:32;;;;;;;2.47;2.38;;;16.40;99.90;;;;;;5084059;28;20009;-86
2023/06/18 06:55:00;;;;;;;0.52;0.52;;;16.60;99.90;;;;;;5082854;28;20031;-89
2023/06/18 06:57:26;;;;;;;0.10;0.10;;;16.70;99.90;;;;;;5081786;28;20479;-84
2023/06/18 06:59:51;;;;;;;0.10;0.10;;;16.80;99.90;;;;;;5082743;28;20085;-81
2023/06/18 07:02:17;;;;;;;0.40;0.40;;;16.90;99.90;;;;;;5079406;28;20329;-81
2023/06/18 07:04:46;;;;;;;0.20;0.20;;;17.00;99.90;;;;;;5081256;28;20072;-85
2023/06/18 07:07:13;;;;;;;0.20;0.20;;;14.70;99.90;;;;;;5081981;28;20016;-89
2023/06/18 07:09:39;;;;;;;0.82;0.82;;;17.20;99.90;;;;;;5081440;28;20020;-77
2023/06/18 07:12:08;;;;;;;0.10;0.10;;;17.30;99.90;;;;;;5080023;28;20028;-81
2023/06/18 07:14:39;;;;;;;0.20;0.20;;;17.30;99.90;;;;;;5080849;28;20040;-81
2023/06/18 07:17:07;;;;;;;0.10;0.10;;;17.40;99.90;;;;;;5079856;28;20108;-94
2023/06/18 07:19:33;;;;;;;0.25;0.25;;;17.30;99.90;;;;;;5065226;28;20090;-87
2023/06/18 07:22:00;;;;;;;0.10;0.10;;;17.30;99.90;;;;;;5066071;28;20032;-90
2023/06/18 07:24:36;;;;;;;0.10;0.10;;;17.50;99.90;;;;;;5064653;28;20020;-89
2023/06/18 07:27:02;;;;;;;0.20;0.20;;;17.70;99.90;;;;;;5085556;28;20035;-84
2023/06/18 07:29:30;;;;;;;0.20;0.20;;;17.80;99.90;;;;;;5065019;28;20028;-91
2023/06/18 07:32:00;;;;;;;0.77;0.38;;;17.90;99.90;;;;;;5063956;28;20067;-83
2023/06/18 07:34:26;;;;;;;0.10;0.10;;;18.40;99.90;;;;;;5086236;28;20742;-86
2023/06/18 07:36:56;;;;;;;0.32;0.32;;;18.30;99.90;;;;;;5086876;28;20028;-91
2023/06/18 07:39:24;;;;;;;1.20;1.20;;;18.30;99.90;;;;;;5086823;28;20257;-88
2023/06/18 07:41:52;;;;;;;14.15;2.28;;;18.50;99.90;;;;;;5086822;28;20024;-90
2023/06/18 07:44:18;;;;;;;0.43;0.43;;;18.60;99.90;;;;;;5085523;28;20024;-92
2023/06/18 07:46:50;;;;;;;1.27;1.17;;;18.70;99.90;;;;;;5086118;28;20542;-85
2023/06/18 07:49:21;;;;;;;0.52;0.43;;;18.80;99.90;;;;;;5085954;28;20133;-82
2023/06/18 07:51:52;;;;;;;0.40;0.40;;;18.80;99.90;;;;;;5086344;28;20044;-85
2023/06/18 07:54:17;;;;;;;0.10;0.10;;;18.80;99.90;;;;;;5087068;28;20012;-82
2023/06/18 07:56:43;;;;;;;0.10;0.10;;;19.20;99.90;;;;;;5092431;28;20229;-93
2023/06/18 07:59:21;;;;;;;0.10;0.10;;;19.30;99.90;;;;;;5072799;28;20139;-81
2023/06/18 08:01:47;;;;;;;0.40;0.40;;;19.20;99.90;;;;;;5072379;28;20040;-87
2023/06/18 08:04:16;;;;;;;0.20;0.20;;;19.40;99.90;;;;;;5091459;28;20409;-82
2023/06/18 08:06:43;;;;;;;0.28;0.28;;;19.20;99.90;;;;;;5087010;28;20013;-84
2023/06/18 08:09:09;;;;;;;0.10;0.10;;;19.70;99.90;;;;;;5086979;28;20486;-82
2023/06/18 08:11:35;;;;;;;0.35;0.35;;;19.60;99.90;;;;;;5086252;28;20108;-84
2023/06/18 08:14:02;;;;;;;0.10;0.10;;;20.20;99.90;;;;;;5088175;28;20016;-83
2023/06/18 08:16:28;;;;;;;0.10;0.10;;;20.00;99.90;;;;;;5070173;28;20031;-92
2023/06/18 08:19:00;;;;;;;0.10;0.10;;;20.30;99.90;;;;;;5086034;28;20020;-78
2023/06/18 08:21:29;;;;;;;0.80;0.80;;;23.10;99.90;;;;;;5085352;28;20056;-91
2023/06/18 08:23:55;;;;;;;0.10;0.10;;;20.70;99.90;;;;;;5086480;28;20560;-86
2023/06/18 08:26:22;;;;;;;0.13;0.13;;;20.80;99.90;;;;;;5085211;28;20034;-89
2023/06/18 08:28:51;;;;;;;0.10;0.10;;;21.00;99.90;;;;;;5065775;28;20054;-85
2023/06/18 08:31:26;;;;;;;0.45;0.45;;;21.10;99.90;;;;;;5083696;28;20223;-78
2023/06/18 08:34:07;;;;;;;0.10;0.10;;;16.80;99.90;;;;;;5084294;28;20028;-91
2023/06/18 08:36:33;;;;;;;0.10;0.10;;;21.00;99.90;;;;;;5066921;28;20027;-78
2023/06/18 08:38:59;;;;;;;0.10;0.10;;;20.90;99.90;;;;;;5084409;28;20373;-82
2023/06/18 08:41:31;;;;;;;0.10;0.10;;;21.00;99.90;;;;;;5084333;28;20016;-79
2023/06/18 08:43:57;;;;;;;0.20;0.20;;;21.10;99.90;;;;;;5083509;28;20012;-91
2023/06/18 08:46:26;;;;;;;1.25;1.15;;;21.30;99.90;;;;;;5084344;28;20126;-85
2023/06/18 08:49:04;;;;;;;0.82;0.82;;;21.50;99.90;;;;;;5066466;28;20028;-79
2023/06/18 08:51:31;;;;;;;0.25;0.25;;;21.60;99.90;;;;;;5084229;28;20047;-78
2023/06/18 08:54:14;;;;;;;0.10;0.10;;;21.70;99.90;;;;;;5065513;28;20108;-80
2023/06/18 08:56:45;;;;;;;1.17;0.95;;;21.60;99.90;;;;;;5067400;28;20082;-81
2023/06/18 08:59:18;;;;;;;0.40;0.40;;;21.90;99.90;;;;;;5065534;28;20024;-83
2023/06/18 09:01:45;;;;;;;0.10;0.10;;;22.00;99.90;;;;;;5083627;28;20048;-81
2023/06/18 09:04:14;;;;;;;0.45;0.45;;;22.00;99.90;;;;;;5085220;28;20024;-88
2023/06/18 09:06:39;;;;;;;0.80;0.70;;;21.90;99.90;;;;;;5085383;28;20028;-86
2023/06/18 09:09:05;;;;;;;0.20;0.20;;;21.90;99.90;;;;;;5065826;28;20082;-83
2023/06/18 09:11:33;;;;;;;0.32;0.32;;;22.10;99.90;;;;;;5086668;28;20489;-87
2023/06/18 09:13:59;;;;;;;0.10;0.10;;;22.40;99.90;;;;;;5085101;28;20062;-87
2023/06/18 09:16:28;;;;;;;0.10;0.10;;;22.70;99.90;;;;;;5084490;28;20024;-95
2023/06/18 09:19:03;;;;;;;0.10;0.10;;;23.00;99.90;;;;;;5086849;28;20047;-80
2023/06/18 09:21:42;;;;;;;0.60;0.60;;;23.20;99.90;;;;;;5084595;28;20035;-78
2023/06/18 09:24:22;;;;;;;0.10;0.10;;;24.30;99.90;;;;;;5086177;28;20020;-79
2023/06/18 09:27:01;;;;;;;0.20;0.20;;;23.80;99.90;;;;;;5084531;28;20042;-77
2023/06/18 09:29:29;;;;;;;0.10;0.10;;;23.70;99.90;;;;;;5082257;28;20072;-78
2023/06/18 09:31:55;;;;;;;0.10;0.10;;;23.80;99.90;;;;;;5063752;28;20040;-82
2023/06/18 09:34:24;;;;;;;0.10;0.10;;;23.60;99.90;;;;;;5080348;28;20023;-79
2023/06/18 09:36:50;;;;;;;1.08;0.95;;;24.20;99.90;;;;;;5064302;28;20020;-88
2023/06/18 09:39:23;;;;;;;0.10;0.10;;;24.00;99.90;;;;;;5083413;28;20024;-88
2023/06/18 09:41:54;;;;;;;0.28;0.28;;;23.90;99.90;;;;;;5082297;28;20024;-88
2023/06/18 09:44:23;;;;;;;0.10;0.10;;;23.90;99.90;;;;;;5082321;28;20327;-85
2023/06/18 09:46:59;;;;;;;0.10;0.10;;;23.90;99.90;;;;;;5048198;28;20116;-91
2023/06/18 09:49:30;;;;;;;0.30;0.30;;;24.00;99.90;;;;;;5081224;28;20013;-88
2023/06/18 09:51:56;;;;;;;0.10;0.10;;;23.70;99.90;;;;;;5063804;28;20028;-82
2023/06/18 09:54:22;;;;;;;2.38;1.30;;;24.20;99.90;;;;;;5063874;28;20031;-85
2023/06/18 09:57:20;;;;;;;0.13;0.13;;;24.20;99.90;;;;;;5082126;28;20009;-83
2023/06/18 09:59:46;;;;;;;0.15;0.15;;;24.10;99.90;;;;;;5064294;28;20035;-78
2023/06/18 10:02:24;;;;;;;0.10;0.10;;;24.40;99.90;;;;;;5061056;28;20056;-83
2023/06/18 10:04:52;;;;;;;0.32;0.32;;;24.70;99.90;;;;;;5061287;28;20545;-81
2023/06/18 10:07:19;;;;;;;0.50;0.50;;;24.70;99.90;;;;;;5061088;28;20052;-83
2023/06/18 10:09:46;;;;;;;0.15;0.15;;;24.60;99.90;;;;;;5061645;28;20325;-92
2023/06/18 10:12:17;;;;;;;0.20;0.20;;;24.80;99.90;;;;;;5062779;28;20513;-86
2023/06/18 10:14:44;;;;;;;0.20;0.20;;;24.90;99.90;;;;;;5063068;28;20481;-88
2023/06/18 10:17:28;;;;;;;0.10;0.10;;;25.20;99.90;;;;;;5062621;28;20028;-88
2023/06/18 10:20:03;;;;;;;0.10;0.10;;;25.20;99.90;;;;;;5071968;28;20043;-86
2023/06/18 10:22:34;;;;;;;0.47;0.47;;;25.50;99.90;;;;;;5070038;28;20107;-89
2023/06/18 10:25:04;;;;;;;1.58;0.75;;;25.80;99.10;;;;;;5072276;28;20025;-81
2023/06/18 10:27:31;;;;;;;0.10;0.10;;;25.90;98.10;;;;;;5073974;28;20024;-85
2023/06/18 10:30:02;;;;;;;0.10;0.10;;;25.90;97.80;;;;;;5076748;28;20074;-91
2023/06/18 10:32:38;;;;;;;0.00;0.00;;;25.90;96.00;;;;;;5065610;28;20387;-82
2023/06/18 10:35:12;;;;;;;0.10;0.10;;;25.90;96.00;;;;;;5064259;28;20044;-81
2023/06/18 10:37:43;;;;;;;0.75;0.73;;;25.50;96.40;;;;;;5069563;28;20230;-89
2023/06/18 10:40:12;;;;;;;0.20;0.20;;;25.50;96.50;;;;;;5064315;28;20029;-92
2023/06/18 10:42:46;;;;;;;0.73;0.73;;;25.10;95.50;;;;;;5060885;28;20033;-83
2023/06/18 10:45:14;;;;;;;0.70;0.40;;;27.10;95.60;;;;;;5061579;28;20025;-80
2023/06/18 10:47:43;;;;;;;0.45;0.45;;;26.20;95.00;;;;;;5060205;28;20371;-79
2023/06/18 10:50:17;;;;;;;0.20;0.20;;;26.00;90.40;;;;;;5060768;28;20051;-78
2023/06/18 10:52:45;;;;;;;0.32;0.32;;;25.80;89.10;;;;;;5061219;28;20027;-76
2023/06/18 10:55:20;;;;;;;0.15;0.15;;;28.40;91.00;;;;;;5059798;28;20031;-76
2023/06/18 10:58:03;;;;;;;0.10;0.10;;;22.70;87.20;;;;;;5058769;28;20024;-88
2023/06/18 11:00:35;;;;;;;0.25;0.25;;;26.30;89.30;;;;;;5063466;28;20063;-83
2023/06/18 11:03:06;;;;;;;0.05;0.05;;;26.70;85.80;;;;;;5080884;28;20319;-81
2023/06/18 11:05:32;;;;;;;0.43;0.30;;;25.40;83.60;;;;;;5081044;28;20028;-78
2023/06/18 11:08:05;;;;;;;0.10;0.10;;;24.60;79.20;;;;;;5083833;28;20027;-79
2023/06/18 11:10:37;;;;;;;1.35;0.68;;;27.60;80.60;;;;;;5067676;28;20020;-88
2023/06/18 11:13:07;;;;;;;0.28;0.15;;;27.70;79.20;;;;;;5067885;28;20681;-87
2023/06/18 11:15:35;;;;;;;0.10;0.10;;;28.00;78.00;;;;;;5085848;28;20800;-82
2023/06/18 11:18:02;;;;;;;0.10;0.10;;;28.10;77.00;;;;;;5085489;28;20530;-88
2023/06/18 11:20:31;;;;;;;0.38;0.38;;;28.20;79.10;;;;;;5084333;28;20514;-83
2023/06/18 11:23:00;;;;;;;0.10;0.10;;;28.60;75.10;;;;;;5084275;28;20074;-80
2023/06/18 11:25:27;;;;;;;0.32;0.30;;;28.40;76.90;;;;;;5085622;28;20028;-80
2023/06/18 11:27:58;;;;;;;2.08;0.35;;;28.00;75.10;;;;;;5086961;28;20020;-86
2023/06/18 11:30:24;;;;;;;0.47;0.45;;;27.80;75.20;;;;;;5068074;28;20071;-84
2023/06/18 11:32:53;;;;;;;0.52;0.52;;;27.40;76.50;;;;;;5086993;28;20478;-90
2023/06/18 11:35:19;;;;;;;0.28;0.28;;;27.00;77.20;;;;;;5087794;28;20566;-81
2023/06/18 11:37:45;;;;;;;0.63;0.60;;;26.60;77.60;;;;;;5086717;28;20028;-87
2023/06/18 11:40:17;;;;;;;0.03;0.03;;;26.50;76.80;;;;;;5086894;28;20068;-87
2023/06/18 11:42:52;;;;;;;0.07;0.07;;;26.70;78.00;;;;;;5087250;28;20504;-79
2023/06/18 11:45:19;;;;;;;0.17;0.17;;;27.30;75.80;;;;;;5067292;28;20315;-89
2023/06/18 11:47:47;;;;;;;0.10;0.10;;;27.60;75.80;;;;;;5089755;28;20077;-87
2023/06/18 11:50:17;;;;;;;0.20;0.20;;;28.00;73.00;;;;;;5087568;28;20020;-85
2023/06/18 11:52:45;;;;;;;0.10;0.10;;;27.90;72.50;;;;;;5086849;28;20024;-91
2023/06/18 11:55:14;;;;;;;0.52;0.52;;;27.80;74.50;;;;;;5087802;28;20107;-85
2023/06/18 11:57:40;;;;;;;0.35;0.35;;;27.70;74.90;;;;;;5087183;28;20268;-85
2023/06/18 12:00:10;;;;;;;2.28;1.52;;;28.10;74.40;;;;;;5085450;28;20585;-76
2023/06/18 12:02:40;;;;;;;0.20;0.20;;;28.50;73.90;;;;;;5069650;28;20032;-79
2023/06/18 12:05:07;;;;;;;0.10;0.10;;;28.70;73.20;;;;;;5052403;28;20024;-92
2023/06/18 12:07:33;;;;;;;0.52;0.52;;;28.40;71.80;;;;;;5086111;28;20267;-77
2023/06/18 12:10:08;;;;;;;0.35;0.35;;;28.10;73.00;;;;;;5086111;28;20020;-84
2023/06/18 12:13:00;;;;;;;0.10;0.10;;;27.90;72.90;;;;;;5083390;28;20627;-80
2023/06/18 12:15:34;;;;;;;0.38;0.38;;;28.00;72.50;;;;;;5082934;28;20031;-82
2023/06/18 12:18:16;;;;;;;0.60;0.55;;;28.50;71.40;;;;;;5082563;28;20042;-85
2023/06/18 12:20:43;;;;;;;0.10;0.10;;;28.30;71.10;;;;;;5082121;28;20039;-81
2023/06/18 12:23:11;;;;;;;1.27;1.17;;;28.80;72.60;;;;;;5083178;28;20360;-84
2023/06/18 12:25:37;;;;;;;0.20;0.20;;;29.40;70.90;;;;;;5083459;28;20023;-86
2023/06/18 12:28:04;;;;;;;0.10;0.10;;;29.00;67.70;;;;;;5082915;28;20024;-78
2023/06/18 12:30:40;;;;;;;0.10;0.10;;;29.10;69.30;;;;;;5083805;28;20262;-84
2023/06/18 12:33:07;;;;;;;0.10;0.10;;;28.80;70.70;;;;;;5069686;28;20024;-80
2023/06/18 12:35:34;;;;;;;0.20;0.20;;;28.40;70.60;;;;;;5087999;28;20414;-78
2023/06/18 12:38:04;;;;;;;0.10;0.10;;;27.90;71.30;;;;;;5052430;28;20552;-76
2023/06/18 12:40:31;;;;;;;0.10;0.10;;;27.50;71.50;;;;;;5069590;28;20118;-83
2023/06/18 12:42:59;;;;;;;0.10;0.10;;;27.20;73.10;;;;;;5085596;28;20028;-83
2023/06/18 12:45:31;;;;;;;0.32;0.32;;;27.00;72.80;;;;;;5085159;28;20020;-81
2023/06/18 12:47:59;;;;;;;0.10;0.10;;;26.30;74.40;;;;;;5083809;28;20012;-83
2023/06/18 12:50:34;;;;;;;0.28;0.20;;;26.50;74.00;;;;;;5084427;28;20267;-87
2023/06/18 12:53:18;;;;;;;0.10;0.10;;;26.80;73.80;;;;;;5083732;28;20020;-83
2023/06/18 12:55:55;;;;;;;0.10;0.10;;;27.30;72.20;;;;;;5083680;28;20121;-89
2023/06/18 12:58:26;;;;;;;0.10;0.10;;;27.40;72.80;;;;;;5083774;28;20590;-81
2023/06/18 13:00:55;;;;;;;0.15;0.15;;;27.60;71.20;;;;;;5083399;28;20067;-89
2023/06/18 13:03:26;;;;;;;2.42;0.95;;;27.80;71.40;;;;;;5083851;28;20089;-80
2023/06/18 13:06:01;;;;;;;0.05;0.05;;;27.60;70.70;;;;;;5063989;28;20020;-87
2023/06/18 13:08:30;;;;;;;0.30;0.30;;;26.20;70.20;;;;;;5063610;28;20039;-79
2023/06/18 13:10:57;;;;;;;0.10;0.10;;;27.80;70.10;;;;;;5063958;28;20397;-83
2023/06/18 13:13:28;;;;;;;2.00;1.35;;;25.80;67.00;;;;;;5062336;28;20176;-78
2023/06/18 13:15:54;;;;;;;0.10;0.10;;;28.50;67.30;;;;;;5061740;28;20031;-79
2023/06/18 13:18:37;;;;;;;0.25;0.25;;;28.80;67.90;;;;;;5061100;28;20038;-78
2023/06/18 13:21:05;;;;;;;0.28;0.28;;;25.10;62.60;;;;;;5061644;28;20032;-77
2023/06/18 13:23:30;;;;;;;1.08;1.00;;;28.70;66.20;;;;;;5080031;28;20289;-80